sensor_id;sensor_type;location;lat;lon;timestamp;pressure;altitude;pressure_sealevel;temperature;humidity
17450;BME280;8842;51.244;7.102;2023-01-05T00:06:45;99412.23;;;11.66;100.00
17450;BME280;8842;51.244;7.102;2023-01-05T00:17:01;99440.16;;;11.66;100.00
17450;BME280;8842;51.244;7.102;2023-01-05T00:27:36;99440.61;;;11.71;100.00
17450;BME280;8842;51.244;7.102;2023-01-05T00:37:52;99428.27;;;11.59;100.00
17450;BME280;8842;51.244;7.102;2023-01-05T00:53:20;99437.23;;;11.58;100.00
17450;BME280;8842;51.244;7.102;2023-01-05T01:03:36;99440.62;;;11.54;100.00
17450;BME280;8842;51.244;7.102;2023-01-05T01:13:51;99452.98;;;11.44;100.00
17450;BME280;8842;51.244;7.102;2023-01-05T01:24:07;99461.90;;;11.54;100.00
17450;BME280;8842;51.244;7.102;2023-01-05T01:34:23;99446.67;;;11.56;100.00
17450;BME280;8842;51.244;7.102;2023-01-05T01:44:53;99463.12;;;11.50;100.00
17450;BME280;8842;51.244;7.102;2023-01-05T01:55:10;99467.59;;;11.50;100.00
17450;BME280;8842;51.244;7.102;2023-01-05T02:05:29;99466.98;;;11.41;100.00
17450;BME280;8842;51.244;7.102;2023-01-05T02:15:49;99484.30;;;11.46;100.00
17450;BME280;8842;51.244;7.102;2023-01-05T02:37:37;99486.96;;;11.30;100.00
17450;BME280;8842;51.244;7.102;2023-01-05T02:47:52;99507.27;;;11.25;100.00
17450;BME280;8842;51.244;7.102;2023-01-05T02:58:12;99505.56;;;11.13;100.00
17450;BME280;8842;51.244;7.102;2023-01-05T03:03:20;99502.91;;;11.13;100.00
17450;BME280;8842;51.244;7.102;2023-01-05T03:13:39;99501.70;;;11.06;100.00
17450;BME280;8842;51.244;7.102;2023-01-05T03:23:56;99514.38;;;11.08;100.00
17450;BME280;8842;51.244;7.102;2023-01-05T03:34:35;99511.47;;;11.11;100.00
17450;BME280;8842;51.244;7.102;2023-01-05T03:45:15;99523.34;;;11.24;100.00
17450;BME280;8842;51.244;7.102;2023-01-05T03:55:35;99520.55;;;11.09;100.00
17450;BME280;8842;51.244;7.102;2023-01-05T04:05:51;99526.59;;;11.11;100.00
17450;BME280;8842;51.244;7.102;2023-01-05T04:16:09;99520.30;;;11.17;100.00
17450;BME280;8842;51.244;7.102;2023-01-05T04:26:25;99520.30;;;11.12;100.00
17450;BME280;8842;51.244;7.102;2023-01-05T04:36:41;99529.72;;;11.16;100.00
17450;BME280;8842;51.244;7.102;2023-01-05T04:47:05;99519.89;;;10.78;100.00
17450;BME280;8842;51.244;7.102;2023-01-05T04:57:23;99543.64;;;10.63;100.00
17450;BME280;8842;51.244;7.102;2023-01-05T05:07:41;99546.91;;;10.61;100.00
17450;BME280;8842;51.244;7.102;2023-01-05T05:17:56;99536.11;;;10.46;100.00
17450;BME280;8842;51.244;7.102;2023-01-05T05:33:26;99562.89;;;10.43;100.00
17450;BME280;8842;51.244;7.102;2023-01-05T05:48:55;99582.97;;;10.29;100.00
17450;BME280;8842;51.244;7.102;2023-01-05T05:59:12;99583.30;;;10.24;100.00
17450;BME280;8842;51.244;7.102;2023-01-05T06:09:27;99606.52;;;10.33;100.00
17450;BME280;8842;51.244;7.102;2023-01-05T06:14:31;99600.83;;;10.27;100.00
17450;BME280;8842;51.244;7.102;2023-01-05T06:19:35;99604.20;;;10.29;100.00
17450;BME280;8842;51.244;7.102;2023-01-05T06:29:53;99620.91;;;10.18;100.00
17450;BME280;8842;51.244;7.102;2023-01-05T06:45:27;99629.28;;;10.25;100.00
17450;BME280;8842;51.244;7.102;2023-01-05T06:55:43;99648.55;;;10.21;100.00
17450;BME280;8842;51.244;7.102;2023-01-05T07:06:01;99651.84;;;10.25;100.00
17450;BME280;8842;51.244;7.102;2023-01-05T07:16:17;99658.98;;;10.30;100.00
17450;BME280;8842;51.244;7.102;2023-01-05T07:26:35;99667.02;;;10.23;100.00
17450;BME280;8842;51.244;7.102;2023-01-05T07:36:53;99672.14;;;10.31;100.00
17450;BME280;8842;51.244;7.102;2023-01-05T07:41:57;99682.81;;;10.19;100.00
17450;BME280;8842;51.244;7.102;2023-01-05T07:52:16;99692.16;;;10.30;100.00
17450;BME280;8842;51.244;7.102;2023-01-05T07:57:20;99698.16;;;10.21;100.00
17450;BME280;8842;51.244;7.102;2023-01-05T08:02:24;99700.81;;;10.21;100.00
17450;BME280;8842;51.244;7.102;2023-01-05T08:12:44;99719.34;;;10.33;100.00
17450;BME280;8842;51.244;7.102;2023-01-05T08:23:21;99734.92;;;10.32;100.00
17450;BME280;8842;51.244;7.102;2023-01-05T08:28:25;99731.48;;;10.25;100.00
17450;BME280;8842;51.244;7.102;2023-01-05T08:38:44;99749.41;;;10.34;100.00
17450;BME280;8842;51.244;7.102;2023-01-05T08:49:07;99752.20;;;10.38;100.00
17450;BME280;8842;51.244;7.102;2023-01-05T08:54:12;99762.61;;;10.41;100.00
17450;BME280;8842;51.244;7.102;2023-01-05T08:59:16;99763.14;;;10.46;100.00
17450;BME280;8842;51.244;7.102;2023-01-05T09:04:20;99781.23;;;10.46;100.00
17450;BME280;8842;51.244;7.102;2023-01-05T09:09:24;99781.30;;;10.39;100.00
17450;BME280;8842;51.244;7.102;2023-01-05T09:19:42;99779.11;;;10.39;100.00
17450;BME280;8842;51.244;7.102;2023-01-05T09:24:46;99786.07;;;10.47;100.00
17450;BME280;8842;51.244;7.102;2023-01-05T09:35:10;99793.71;;;10.51;100.00
17450;BME280;8842;51.244;7.102;2023-01-05T09:50:42;99822.45;;;10.70;100.00
17450;BME280;8842;51.244;7.102;2023-01-05T10:01:06;99835.38;;;10.69;100.00
17450;BME280;8842;51.244;7.102;2023-01-05T10:16:39;99842.11;;;10.80;100.00
17450;BME280;8842;51.244;7.102;2023-01-05T10:27:06;99849.31;;;10.90;100.00
17450;BME280;8842;51.244;7.102;2023-01-05T10:38:01;99849.34;;;10.96;100.00
17450;BME280;8842;51.244;7.102;2023-01-05T10:48:34;99858.56;;;11.03;100.00
17450;BME280;8842;51.244;7.102;2023-01-05T10:53:41;99865.04;;;10.93;100.00
17450;BME280;8842;51.244;7.102;2023-01-05T11:09:21;99873.73;;;10.95;100.00
17450;BME280;8842;51.244;7.102;2023-01-05T11:35:37;99869.86;;;11.30;100.00
17450;BME280;8842;51.244;7.102;2023-01-05T11:45:55;99873.63;;;11.33;100.00
17450;BME280;8842;51.244;7.102;2023-01-05T11:56:19;99872.20;;;11.40;100.00
17450;BME280;8842;51.244;7.102;2023-01-05T12:07:10;99871.87;;;11.50;100.00
17450;BME280;8842;51.244;7.102;2023-01-05T12:17:32;99874.14;;;11.61;100.00
17450;BME280;8842;51.244;7.102;2023-01-05T12:22:55;99869.67;;;11.62;100.00
17450;BME280;8842;51.244;7.102;2023-01-05T12:33:31;99862.23;;;11.78;100.00
17450;BME280;8842;51.244;7.102;2023-01-05T12:44:07;99875.07;;;11.78;100.00
17450;BME280;8842;51.244;7.102;2023-01-05T12:54:27;99881.91;;;11.99;100.00
17450;BME280;8842;51.244;7.102;2023-01-05T13:04:49;99887.39;;;12.03;100.00
17450;BME280;8842;51.244;7.102;2023-01-05T13:09:58;99886.81;;;12.16;100.00
17450;BME280;8842;51.244;7.102;2023-01-05T13:15:16;99879.81;;;12.21;100.00
17450;BME280;8842;51.244;7.102;2023-01-05T13:25:49;99876.28;;;12.20;100.00
17450;BME280;8842;51.244;7.102;2023-01-05T13:42:18;99883.69;;;12.33;100.00
17450;BME280;8842;51.244;7.102;2023-01-05T13:52:50;99895.34;;;11.97;100.00
17450;BME280;8842;51.244;7.102;2023-01-05T13:57:55;99898.69;;;11.88;100.00
17450;BME280;8842;51.244;7.102;2023-01-05T14:13:43;99904.81;;;12.01;100.00
17450;BME280;8842;51.244;7.102;2023-01-05T14:24:22;99903.13;;;12.06;100.00
17450;BME280;8842;51.244;7.102;2023-01-05T14:34:25;99894.58;;;11.90;100.00
17450;BME280;8842;51.244;7.102;2023-01-05T14:49:59;99910.42;;;11.86;100.00
17450;BME280;8842;51.244;7.102;2023-01-05T15:00:37;99917.17;;;11.61;100.00
17450;BME280;8842;51.244;7.102;2023-01-05T15:16:33;99921.05;;;11.39;100.00
17450;BME280;8842;51.244;7.102;2023-01-05T15:21:53;99919.02;;;11.24;100.00
17450;BME280;8842;51.244;7.102;2023-01-05T15:32:29;99919.58;;;11.35;100.00
17450;BME280;8842;51.244;7.102;2023-01-05T15:37:35;99919.84;;;11.25;100.00
17450;BME280;8842;51.244;7.102;2023-01-05T15:47:56;99910.07;;;11.25;100.00
17450;BME280;8842;51.244;7.102;2023-01-05T15:53:02;99914.14;;;11.18;100.00
17450;BME280;8842;51.244;7.102;2023-01-05T16:03:27;99909.59;;;11.08;100.00
17450;BME280;8842;51.244;7.102;2023-01-05T16:13:49;99914.73;;;11.04;100.00
17450;BME280;8842;51.244;7.102;2023-01-05T16:24:13;99909.28;;;11.00;100.00
17450;BME280;8842;51.244;7.102;2023-01-05T16:34:43;99904.04;;;10.93;100.00
17450;BME280;8842;51.244;7.102;2023-01-05T16:44:59;99908.78;;;10.95;100.00
17450;BME280;8842;51.244;7.102;2023-01-05T17:06:00;99905.77;;;10.81;100.00
17450;BME280;8842;51.244;7.102;2023-01-05T17:16:22;99899.34;;;10.78;100.00
17450;BME280;8842;51.244;7.102;2023-01-05T17:26:42;99889.98;;;10.73;100.00
17450;BME280;8842;51.244;7.102;2023-01-05T17:31:46;99893.41;;;10.62;100.00
17450;BME280;8842;51.244;7.102;2023-01-05T17:42:08;99877.30;;;10.71;100.00
17450;BME280;8842;51.244;7.102;2023-01-05T17:52:42;99878.13;;;10.71;100.00
17450;BME280;8842;51.244;7.102;2023-01-05T18:03:00;99871.45;;;10.66;100.00
17450;BME280;8842;51.244;7.102;2023-01-05T18:08:04;99875.36;;;10.55;100.00
17450;BME280;8842;51.244;7.102;2023-01-05T18:13:08;99873.02;;;10.50;100.00
17450;BME280;8842;51.244;7.102;2023-01-05T18:18:13;99867.28;;;10.56;100.00
17450;BME280;8842;51.244;7.102;2023-01-05T18:28:28;99863.13;;;10.65;100.00
17450;BME280;8842;51.244;7.102;2023-01-05T18:38:43;99856.84;;;10.66;100.00
17450;BME280;8842;51.244;7.102;2023-01-05T18:49:00;99849.98;;;10.69;100.00
17450;BME280;8842;51.244;7.102;2023-01-05T18:59:17;99839.75;;;10.57;100.00
17450;BME280;8842;51.244;7.102;2023-01-05T19:04:21;99829.42;;;10.47;100.00
17450;BME280;8842;51.244;7.102;2023-01-05T19:14:36;99838.13;;;10.67;100.00
17450;BME280;8842;51.244;7.102;2023-01-05T19:24:54;99822.52;;;10.63;100.00
17450;BME280;8842;51.244;7.102;2023-01-05T19:35:11;99822.52;;;10.63;100.00
17450;BME280;8842;51.244;7.102;2023-01-05T19:45:29;99816.92;;;10.73;100.00
17450;BME280;8842;51.244;7.102;2023-01-05T19:55:47;99816.34;;;10.75;100.00
17450;BME280;8842;51.244;7.102;2023-01-05T20:06:11;99815.12;;;10.73;100.00
17450;BME280;8842;51.244;7.102;2023-01-05T20:16:29;99815.67;;;10.66;100.00
17450;BME280;8842;51.244;7.102;2023-01-05T20:26:49;99812.55;;;10.66;100.00
17450;BME280;8842;51.244;7.102;2023-01-05T20:42:24;99804.91;;;10.80;100.00
17450;BME280;8842;51.244;7.102;2023-01-05T20:52:42;99805.27;;;10.81;100.00
17450;BME280;8842;51.244;7.102;2023-01-05T21:03:00;99799.88;;;10.88;100.00
17450;BME280;8842;51.244;7.102;2023-01-05T21:13:18;99798.94;;;10.89;100.00
17450;BME280;8842;51.244;7.102;2023-01-05T21:23:36;99808.70;;;10.88;100.00
17450;BME280;8842;51.244;7.102;2023-01-05T21:33:55;99792.20;;;10.96;100.00
17450;BME280;8842;51.244;7.102;2023-01-05T21:44:14;99793.46;;;11.08;100.00
17450;BME280;8842;51.244;7.102;2023-01-05T21:54:33;99779.69;;;11.03;100.00
17450;BME280;8842;51.244;7.102;2023-01-05T22:05:07;99779.67;;;11.27;100.00
17450;BME280;8842;51.244;7.102;2023-01-05T22:25:58;99758.53;;;11.31;100.00
17450;BME280;8842;51.244;7.102;2023-01-05T22:31:05;99771.24;;;11.33;100.00
17450;BME280;8842;51.244;7.102;2023-01-05T22:41:21;99772.34;;;11.36;100.00
17450;BME280;8842;51.244;7.102;2023-01-05T22:51:41;99775.00;;;11.36;100.00
17450;BME280;8842;51.244;7.102;2023-01-05T23:07:11;99773.61;;;11.25;100.00
17450;BME280;8842;51.244;7.102;2023-01-05T23:22:39;99769.92;;;11.38;100.00
17450;BME280;8842;51.244;7.102;2023-01-05T23:32:58;99772.57;;;11.33;100.00
17450;BME280;8842;51.244;7.102;2023-01-05T23:43:15;99772.05;;;11.28;100.00
17450;BME280;8842;51.244;7.102;2023-01-05T23:53:31;99770.88;;;11.08;100.00
